Time,TemperatureF,DewpointF,PressureIn,WindDirection,WindDirectionDegrees,WindSpeedMPH,WindSpeedGustMPH,Humidity,HourlyPrecipIn,Conditions,Clouds,dailyrainin,SoftwareType,DateUTC
2013-04-18 00:09:00,54.0,37.8,30.12,North,-999,0.0,0.0,54,0.00,,,-99.99,FreeWX-Wi 1.01,2013-04-18 07:09:00,
2013-04-18 00:19:00,53.8,37.9,30.12,North,-999,0.0,0.0,55,0.00,,,-99.99,FreeWX-Wi 1.01,2013-04-18 07:19:00,
2013-04-18 00:29:00,53.8,37.9,30.12,North,-999,0.0,0.0,55,0.00,,,-99.99,FreeWX-Wi 1.01,2013-04-18 07:29:00,
2013-04-18 00:39:00,53.6,38.3,30.12,North,-999,0.0,0.0,56,0.00,,,-99.99,FreeWX-Wi 1.01,2013-04-18 07:39:00,
2013-04-18 00:49:00,53.2,38.8,30.12,North,-999,0.0,0.0,58,0.00,,,-99.99,FreeWX-Wi 1.01,2013-04-18 07:49:00,
2013-04-18 00:59:00,53.2,38.5,30.12,North,-999,0.0,0.0,57,0.00,,,-99.99,FreeWX-Wi 1.01,2013-04-18 07:59:00,
2013-04-18 01:09:00,53.1,38.3,30.12,North,-999,0.0,2.7,57,0.00,,,-99.99,FreeWX-Wi 1.01,2013-04-18 08:09:00,
2013-04-18 01:19:00,53.1,38.3,30.12,North,-999,0.0,0.0,57,0.00,,,-99.99,FreeWX-Wi 1.01,2013-04-18 08:19:00,
2013-04-18 01:29:00,52.9,38.1,30.12,North,-999,0.0,0.0,57,0.00,,,-99.99,FreeWX-Wi 1.01,2013-04-18 08:29:00,
2013-04-18 01:39:00,52.7,37.9,30.12,North,-999,0.0,0.0,57,0.00,,,-99.99,FreeWX-Wi 1.01,2013-04-18 08:39:00,
2013-04-18 01:49:00,52.7,37.9,30.12,North,-999,0.0,0.0,57,0.00,,,-99.99,FreeWX-Wi 1.01,2013-04-18 08:49:00,
2013-04-18 01:59:00,52.9,38.1,30.12,North,-999,0.0,3.6,57,0.00,,,-99.99,FreeWX-Wi 1.01,2013-04-18 08:59:00,
2013-04-18 02:09:00,52.7,38.3,30.12,North,-999,0.0,5.4,58,0.00,,,-99.99,FreeWX-Wi 1.01,2013-04-18 09:09:00,
2013-04-18 02:19:00,52.7,37.9,30.09,North,-999,0.0,2.2,57,0.00,,,-99.99,FreeWX-Wi 1.01,2013-04-18 09:19:00,
2013-04-18 02:29:00,52.9,37.6,30.09,North,-999,0.0,3.6,56,0.00,,,-99.99,FreeWX-Wi 1.01,2013-04-18 09:29:00,
2013-04-18 02:39:00,52.7,37.4,30.09,North,-999,0.0,0.0,56,0.00,,,-99.99,FreeWX-Wi 1.01,2013-04-18 09:39:00,
2013-04-18 02:49:00,52.3,37.6,30.09,North,-999,0.0,0.0,57,0.00,,,-99.99,FreeWX-Wi 1.01,2013-04-18 09:49:00,
2013-04-18 02:59:00,52.2,37.8,30.09,North,-999,0.0,0.0,58,0.00,,,-99.99,FreeWX-Wi 1.01,2013-04-18 09:59:00,
2013-04-18 03:09:00,52.0,37.6,30.09,North,-999,0.0,0.0,58,0.00,,,-99.99,FreeWX-Wi 1.01,2013-04-18 10:09:00,
2013-04-18 03:19:00,52.0,38.5,30.09,North,-999,0.0,0.0,60,0.00,,,-99.99,FreeWX-Wi 1.01,2013-04-18 10:19:00,
2013-04-18 03:29:00,52.0,39.4,30.09,North,-999,0.0,0.0,62,0.00,,,-99.99,FreeWX-Wi 1.01,2013-04-18 10:29:00,
2013-04-18 03:39:00,51.8,39.2,30.09,North,-999,0.0,0.0,62,0.00,,,-99.99,FreeWX-Wi 1.01,2013-04-18 10:39:00,
2013-04-18 03:49:00,51.8,38.8,30.09,North,-999,0.0,0.0,61,0.00,,,-99.99,FreeWX-Wi 1.01,2013-04-18 10:49:00,
2013-04-18 03:59:00,51.8,38.8,30.09,North,-999,0.0,0.0,61,0.00,,,-99.99,FreeWX-Wi 1.01,2013-04-18 10:59:00,
2013-04-18 04:09:00,51.6,38.7,30.09,North,-999,0.0,0.0,61,0.00,,,-99.99,FreeWX-Wi 1.01,2013-04-18 11:09:00,
2013-04-18 04:19:00,51.3,38.3,30.09,North,-999,0.0,0.0,61,0.00,,,-99.99,FreeWX-Wi 1.01,2013-04-18 11:19:00,
2013-04-18 04:29:00,51.3,38.3,30.09,North,-999,0.0,0.0,61,0.00,,,-99.99,FreeWX-Wi 1.01,2013-04-18 11:29:00,
2013-04-18 04:39:00,51.3,38.3,30.12,North,-999,0.0,0.0,61,0.00,,,-99.99,FreeWX-Wi 1.01,2013-04-18 11:39:00,
2013-04-18 04:49:00,51.3,38.3,30.12,North,-999,0.0,0.0,61,0.00,,,-99.99,FreeWX-Wi 1.01,2013-04-18 11:49:00,
2013-04-18 04:59:00,51.4,38.5,30.12,North,-999,0.0,0.0,61,0.00,,,-99.99,FreeWX-Wi 1.01,2013-04-18 11:59:00,
2013-04-18 05:09:00,51.4,38.5,30.12,North,-999,0.0,0.0,61,0.00,,,-99.99,FreeWX-Wi 1.01,2013-04-18 12:09:00,
2013-04-18 05:19:00,51.3,38.3,30.12,North,-999,0.0,0.0,61,0.00,,,-99.99,FreeWX-Wi 1.01,2013-04-18 12:19:00,
2013-04-18 05:29:00,51.1,37.8,30.12,North,-999,0.0,0.0,60,0.00,,,-99.99,FreeWX-Wi 1.01,2013-04-18 12:29:00,
2013-04-18 05:39:00,50.9,37.6,30.12,North,-999,0.0,0.0,60,0.00,,,-99.99,FreeWX-Wi 1.01,2013-04-18 12:39:00,
2013-04-18 05:49:00,50.7,37.4,30.12,North,-999,0.0,0.0,60,0.00,,,-99.99,FreeWX-Wi 1.01,2013-04-18 12:49:00,
2013-04-18 05:59:00,50.5,37.2,30.12,North,-999,0.0,0.0,60,0.00,,,-99.99,FreeWX-Wi 1.01,2013-04-18 12:59:00,
2013-04-18 06:09:00,50.5,37.2,30.12,North,-999,0.0,0.0,60,0.00,,,-99.99,FreeWX-Wi 1.01,2013-04-18 13:09:00,
2013-04-18 06:19:00,50.7,37.8,30.12,North,-999,0.0,0.0,61,0.00,,,-99.99,FreeWX-Wi 1.01,2013-04-18 13:19:00,
2013-04-18 06:29:00,51.3,39.0,30.12,North,-999,0.0,6.3,63,0.00,,,-99.99,FreeWX-Wi 1.01,2013-04-18 13:29:00,
2013-04-18 06:39:00,51.3,39.0,30.12,NNW,347,1.0,4.9,63,0.00,,,-99.99,FreeWX-Wi 1.01,2013-04-18 13:39:00,
2013-04-18 06:49:00,51.3,39.9,30.12,NNW,331,1.0,0.0,65,0.00,,,-99.99,FreeWX-Wi 1.01,2013-04-18 13:49:00,
2013-04-18 06:59:00,51.3,39.9,30.12,North,-999,0.0,0.0,65,0.00,,,-99.99,FreeWX-Wi 1.01,2013-04-18 13:59:00,
2013-04-18 07:09:00,51.4,40.5,30.12,North,-999,0.0,0.0,66,0.00,,,-99.99,FreeWX-Wi 1.01,2013-04-18 14:09:00,
2013-04-18 07:19:00,51.6,40.6,30.15,North,-999,0.0,0.0,66,0.00,,,-99.99,FreeWX-Wi 1.01,2013-04-18 14:19:00,
2013-04-18 07:29:00,52.0,40.6,30.15,North,-999,0.0,0.0,65,0.00,,,-99.99,FreeWX-Wi 1.01,2013-04-18 14:29:00,
2013-04-18 07:39:00,52.3,41.0,30.15,North,-999,0.0,0.0,65,0.00,,,-99.99,FreeWX-Wi 1.01,2013-04-18 14:39:00,
2013-04-18 07:49:00,52.9,41.4,30.15,North,-999,0.0,0.0,65,0.00,,,-99.99,FreeWX-Wi 1.01,2013-04-18 14:49:00,
2013-04-18 07:59:00,53.6,41.7,30.15,North,-999,0.0,0.0,64,0.00,,,-99.99,FreeWX-Wi 1.01,2013-04-18 14:59:00,
2013-04-18 08:09:00,54.5,42.6,30.15,North,-999,0.0,0.0,64,0.00,,,-99.99,FreeWX-Wi 1.01,2013-04-18 15:09:00,
2013-04-18 08:19:00,55.6,43.2,30.15,North,-999,0.0,2.2,63,0.00,,,-99.99,FreeWX-Wi 1.01,2013-04-18 15:19:00,
2013-04-18 08:29:00,56.5,43.7,30.15,North,-999,0.0,0.0,62,0.00,,,-99.99,FreeWX-Wi 1.01,2013-04-18 15:29:00,
2013-04-18 08:39:00,57.4,43.5,30.15,North,-999,0.0,0.0,60,0.00,,,-99.99,FreeWX-Wi 1.01,2013-04-18 15:39:00,
2013-04-18 08:49:00,58.3,43.5,30.15,North,-999,0.0,4.0,58,0.00,,,-99.99,FreeWX-Wi 1.01,2013-04-18 15:49:00,
2013-04-18 08:59:00,59.0,42.8,30.15,North,-999,0.0,4.0,55,0.00,,,-99.99,FreeWX-Wi 1.01,2013-04-18 15:59:00,
2013-04-18 09:09:00,59.7,40.5,30.15,South,172,1.0,4.9,49,0.00,,,-99.99,FreeWX-Wi 1.01,2013-04-18 16:09:00,
2013-04-18 09:19:00,60.4,40.1,30.15,SSE,160,1.0,4.9,47,0.00,,,-99.99,FreeWX-Wi 1.01,2013-04-18 16:19:00,
2013-04-18 09:29:00,61.2,37.9,30.15,South,173,1.0,5.4,42,0.00,,,-99.99,FreeWX-Wi 1.01,2013-04-18 16:29:00,
2013-04-18 09:39:00,61.9,36.0,30.15,South,187,1.0,5.4,38,0.00,,,-99.99,FreeWX-Wi 1.01,2013-04-18 16:39:00,
2013-04-18 09:49:00,62.6,35.2,30.15,South,173,1.0,4.9,36,0.00,,,-99.99,FreeWX-Wi 1.01,2013-04-18 16:49:00,
2013-04-18 09:59:00,63.0,34.2,30.15,SE,143,1.0,6.3,34,0.00,,,-99.99,FreeWX-Wi 1.01,2013-04-18 16:59:00,
2013-04-18 10:09:00,63.5,33.8,30.15,ESE,108,2.0,5.8,33,0.00,,,-99.99,FreeWX-Wi 1.01,2013-04-18 17:09:00,
2013-04-18 10:19:00,63.9,30.9,30.15,East,87,2.0,5.8,29,0.00,,,-99.99,FreeWX-Wi 1.01,2013-04-18 17:19:00,
2013-04-18 10:29:00,65.1,30.4,30.15,East,85,2.0,5.4,27,0.00,,,-99.99,FreeWX-Wi 1.01,2013-04-18 17:29:00,
2013-04-18 10:39:00,65.7,30.7,30.15,East,93,2.0,5.8,27,0.00,,,-99.99,FreeWX-Wi 1.01,2013-04-18 17:39:00,
2013-04-18 10:49:00,66.2,30.4,30.15,East,86,2.0,5.8,26,0.00,,,-99.99,FreeWX-Wi 1.01,2013-04-18 17:49:00,
2013-04-18 10:59:00,66.9,30.9,30.15,ENE,76,3.0,5.8,26,0.00,,,-99.99,FreeWX-Wi 1.01,2013-04-18 17:59:00,
2013-04-18 11:10:00,67.8,30.7,30.15,ENE,58,3.0,6.3,25,0.00,,,-99.99,FreeWX-Wi 1.01,2013-04-18 18:10:00,
2013-04-18 11:20:00,68.9,30.6,30.15,ENE,62,3.0,5.8,24,0.00,,,-99.99,FreeWX-Wi 1.01,2013-04-18 18:20:00,
2013-04-18 11:30:00,69.6,31.3,30.15,ENE,64,2.0,4.9,24,0.00,,,-99.99,FreeWX-Wi 1.01,2013-04-18 18:30:00,
2013-04-18 11:40:00,70.3,30.7,30.15,NE,56,2.0,6.3,23,0.00,,,-99.99,FreeWX-Wi 1.01,2013-04-18 18:40:00,
2013-04-18 11:50:00,70.9,31.3,30.15,NNE,32,1.0,4.9,23,0.00,,,-99.99,FreeWX-Wi 1.01,2013-04-18 18:50:00,
2013-04-18 12:00:00,72.0,31.1,30.15,NE,46,2.0,5.8,22,0.00,,,-99.99,FreeWX-Wi 1.01,2013-04-18 19:00:00,
2013-04-18 12:10:00,72.5,31.5,30.15,ENE,58,2.0,6.3,22,0.00,,,-99.99,FreeWX-Wi 1.01,2013-04-18 19:10:00,
2013-04-18 12:20:00,72.7,35.8,30.15,NE,46,3.0,6.3,26,0.00,,,-99.99,FreeWX-Wi 1.01,2013-04-18 19:20:00,
2013-04-18 12:30:00,71.4,36.7,30.15,NNW,348,3.0,8.1,28,0.00,,,-99.99,FreeWX-Wi 1.01,2013-04-18 19:30:00,
2013-04-18 12:40:00,70.7,36.9,30.15,NNW,330,4.0,9.6,29,0.00,,,-99.99,FreeWX-Wi 1.01,2013-04-18 19:40:00,
2013-04-18 12:50:00,70.5,36.7,30.15,NW,323,4.0,8.3,29,0.00,,,-99.99,FreeWX-Wi 1.01,2013-04-18 19:50:00,
2013-04-18 13:00:00,71.1,35.4,30.15,NNW,336,4.0,7.6,27,0.00,,,-99.99,FreeWX-Wi 1.01,2013-04-18 20:00:00,
2013-04-18 13:10:00,71.6,35.8,30.15,North,351,3.0,8.1,27,0.00,,,-99.99,FreeWX-Wi 1.01,2013-04-18 20:10:00,
2013-04-18 13:20:00,71.4,34.7,30.12,North,5,3.0,8.7,26,0.00,,,-99.99,FreeWX-Wi 1.01,2013-04-18 20:20:00,
2013-04-18 13:30:00,71.2,33.6,30.12,North,358,4.0,8.7,25,0.00,,,-99.99,FreeWX-Wi 1.01,2013-04-18 20:30:00,
2013-04-18 13:40:00,71.6,32.9,30.12,North,351,4.0,7.6,24,0.00,,,-99.99,FreeWX-Wi 1.01,2013-04-18 20:40:00,
2013-04-18 13:50:00,71.2,31.5,30.12,NNW,346,4.0,8.1,23,0.00,,,-99.99,FreeWX-Wi 1.01,2013-04-18 20:50:00,
2013-04-18 14:00:00,70.7,31.1,30.12,NNW,332,4.0,10.1,23,0.00,,,-99.99,FreeWX-Wi 1.01,2013-04-18 21:00:00,
2013-04-18 14:10:00,71.6,31.8,30.12,NNW,331,4.0,8.7,23,0.00,,,-99.99,FreeWX-Wi 1.01,2013-04-18 21:10:00,
2013-04-18 14:20:00,72.3,32.4,30.12,NNW,336,4.0,8.7,23,0.00,,,-99.99,FreeWX-Wi 1.01,2013-04-18 21:20:00,
2013-04-18 14:30:00,71.6,31.8,30.12,NNW,336,4.0,8.7,23,0.00,,,-99.99,FreeWX-Wi 1.01,2013-04-18 21:30:00,
2013-04-18 14:40:00,71.4,32.7,30.12,NNW,333,4.0,10.1,24,0.00,,,-99.99,FreeWX-Wi 1.01,2013-04-18 21:40:00,
2013-04-18 14:50:00,71.8,33.1,30.12,NNW,332,4.0,8.7,24,0.00,,,-99.99,FreeWX-Wi 1.01,2013-04-18 21:50:00,
2013-04-18 15:00:00,71.2,34.5,30.12,NNW,336,4.0,6.3,26,0.00,,,-99.99,FreeWX-Wi 1.01,2013-04-18 22:00:00,
2013-04-18 15:10:00,69.1,34.5,30.12,NNW,335,4.0,11.0,28,0.00,,,-99.99,FreeWX-Wi 1.01,2013-04-18 22:10:00,
2013-04-18 15:20:00,68.5,34.2,30.12,NNW,335,4.0,10.5,28,0.00,,,-99.99,FreeWX-Wi 1.01,2013-04-18 22:20:00,
2013-04-18 15:30:00,67.6,37.6,30.12,NNW,335,5.0,9.6,33,0.00,,,-99.99,FreeWX-Wi 1.01,2013-04-18 22:30:00,
2013-04-18 15:40:00,67.1,37.0,30.12,NNW,339,5.0,8.7,33,0.00,,,-99.99,FreeWX-Wi 1.01,2013-04-18 22:40:00,
2013-04-18 15:50:00,66.9,36.9,30.09,NNW,339,4.0,8.7,33,0.00,,,-99.99,FreeWX-Wi 1.01,2013-04-18 22:50:00,
2013-04-18 16:00:00,65.7,37.9,30.09,NNW,336,5.0,11.0,36,0.00,,,-99.99,FreeWX-Wi 1.01,2013-04-18 23:00:00,
2013-04-18 16:10:00,64.4,38.3,30.09,NNW,334,6.0,10.5,38,0.00,,,-99.99,FreeWX-Wi 1.01,2013-04-18 23:10:00,
2013-04-18 16:20:00,64.8,38.5,30.09,NNW,331,6.0,9.6,38,0.00,,,-99.99,FreeWX-Wi 1.01,2013-04-18 23:20:00,
2013-04-18 16:30:00,64.4,38.3,30.09,NNW,330,6.0,9.6,38,0.00,,,-99.99,FreeWX-Wi 1.01,2013-04-18 23:30:00,
2013-04-18 16:40:00,64.2,36.7,30.09,NNW,331,6.0,10.1,36,0.00,,,-99.99,FreeWX-Wi 1.01,2013-04-18 23:40:00,
2013-04-18 16:50:00,64.4,38.3,30.09,NNW,336,5.0,8.7,38,0.00,,,-99.99,FreeWX-Wi 1.01,2013-04-18 23:50:00,
2013-04-18 17:00:00,64.0,37.2,30.09,NNW,333,5.0,10.1,37,0.00,,,-99.99,FreeWX-Wi 1.01,2013-04-19 00:00:00,
2013-04-18 17:10:00,64.2,36.7,30.09,NNW,335,5.0,10.1,36,0.00,,,-99.99,FreeWX-Wi 1.01,2013-04-19 00:10:00,
2013-04-18 17:20:00,64.0,37.2,30.09,NNW,335,5.0,10.1,37,0.00,,,-99.99,FreeWX-Wi 1.01,2013-04-19 00:20:00,
2013-04-18 17:30:00,63.7,36.9,30.09,NNW,337,5.0,9.6,37,0.00,,,-99.99,FreeWX-Wi 1.01,2013-04-19 00:30:00,
2013-04-18 17:40:00,63.5,37.4,30.09,NNW,333,5.0,9.2,38,0.00,,,-99.99,FreeWX-Wi 1.01,2013-04-19 00:40:00,
2013-04-18 17:50:00,63.1,36.5,30.09,NNW,332,5.0,8.3,37,0.00,,,-99.99,FreeWX-Wi 1.01,2013-04-19 00:50:00,
2013-04-18 18:00:00,63.0,37.0,30.09,NNW,337,4.0,8.1,38,0.00,,,-99.99,FreeWX-Wi 1.01,2013-04-19 01:00:00,
2013-04-18 18:10:00,62.8,36.9,30.09,NNW,339,4.0,8.1,38,0.00,,,-99.99,FreeWX-Wi 1.01,2013-04-19 01:10:00,
2013-04-18 18:20:00,63.1,37.8,30.09,NNW,342,4.0,9.6,39,0.00,,,-99.99,FreeWX-Wi 1.01,2013-04-19 01:20:00,
2013-04-18 18:30:00,62.6,37.2,30.09,NNW,340,4.0,8.7,39,0.00,,,-99.99,FreeWX-Wi 1.01,2013-04-19 01:30:00,
2013-04-18 18:40:00,61.0,40.1,30.09,NNW,346,4.0,8.1,46,0.00,,,-99.99,FreeWX-Wi 1.01,2013-04-19 01:40:00,
2013-04-18 18:50:00,59.4,41.2,30.06,NNW,346,4.0,8.3,51,0.00,,,-99.99,FreeWX-Wi 1.01,2013-04-19 01:50:00,
2013-04-18 19:00:00,58.6,41.5,30.09,NNW,346,3.0,9.6,53,0.00,,,-99.99,FreeWX-Wi 1.01,2013-04-19 02:00:00,
2013-04-18 19:10:00,58.1,41.0,30.09,NNW,332,3.0,8.1,53,0.00,,,-99.99,FreeWX-Wi 1.01,2013-04-19 02:10:00,
2013-04-18 19:20:00,58.1,41.0,30.09,NW,308,3.0,8.1,53,0.00,,,-99.99,FreeWX-Wi 1.01,2013-04-19 02:20:00,
2013-04-18 19:30:00,57.7,40.6,30.09,NW,305,3.0,6.3,53,0.00,,,-99.99,FreeWX-Wi 1.01,2013-04-19 02:30:00,
2013-04-18 19:40:00,57.6,41.0,30.09,NW,317,2.0,5.8,54,0.00,,,-99.99,FreeWX-Wi 1.01,2013-04-19 02:40:00,
2013-04-18 19:50:00,57.9,39.9,30.09,North,8,1.0,5.8,51,0.00,,,-99.99,FreeWX-Wi 1.01,2013-04-19 02:50:00,
2013-04-18 20:00:00,57.7,39.7,30.09,NNE,27,1.0,4.0,51,0.00,,,-99.99,FreeWX-Wi 1.01,2013-04-19 03:00:00,
2013-04-18 20:10:00,57.7,39.7,30.09,NE,44,1.0,4.0,51,0.00,,,-99.99,FreeWX-Wi 1.01,2013-04-19 03:10:00,
2013-04-18 20:20:00,57.2,39.7,30.09,NNE,27,1.0,4.9,52,0.00,,,-99.99,FreeWX-Wi 1.01,2013-04-19 03:20:00,
2013-04-18 20:30:00,57.2,39.7,30.09,NE,40,1.0,3.1,52,0.00,,,-99.99,FreeWX-Wi 1.01,2013-04-19 03:30:00,
2013-04-18 20:40:00,56.8,40.5,30.09,NNE,33,1.0,5.8,54,0.00,,,-99.99,FreeWX-Wi 1.01,2013-04-19 03:40:00,
2013-04-18 20:50:00,56.3,41.2,30.09,NE,50,2.0,5.8,57,0.00,,,-99.99,FreeWX-Wi 1.01,2013-04-19 03:50:00,
2013-04-18 21:00:00,55.9,41.4,30.09,NE,47,2.0,6.3,58,0.00,,,-99.99,FreeWX-Wi 1.01,2013-04-19 04:00:00,
2013-04-18 21:10:00,55.6,42.3,30.09,NE,46,2.0,6.3,61,0.00,,,-99.99,FreeWX-Wi 1.01,2013-04-19 04:10:00,
2013-04-18 21:20:00,54.7,42.8,30.09,NE,34,2.0,5.8,64,0.00,,,-99.99,FreeWX-Wi 1.01,2013-04-19 04:20:00,
2013-04-18 21:30:00,54.5,43.0,30.12,North,10,1.0,3.6,65,0.00,,,-99.99,FreeWX-Wi 1.01,2013-04-19 04:30:00,
2013-04-18 21:40:00,54.1,43.0,30.12,NNW,341,1.0,3.6,66,0.00,,,-99.99,FreeWX-Wi 1.01,2013-04-19 04:40:00,
2013-04-18 21:50:00,54.0,42.8,30.12,NNW,341,1.0,6.3,66,0.00,,,-99.99,FreeWX-Wi 1.01,2013-04-19 04:50:00,
2013-04-18 22:00:00,53.8,43.2,30.12,North,351,1.0,4.0,67,0.00,,,-99.99,FreeWX-Wi 1.01,2013-04-19 05:00:00,
2013-04-18 22:10:00,53.6,43.0,30.12,North,356,1.0,4.5,67,0.00,,,-99.99,FreeWX-Wi 1.01,2013-04-19 05:10:00,
2013-04-18 22:20:00,53.4,43.2,30.12,NNW,343,1.0,3.1,68,0.00,,,-99.99,FreeWX-Wi 1.01,2013-04-19 05:20:00,
2013-04-18 22:30:00,53.4,43.2,30.12,North,-999,0.0,4.9,68,0.00,,,-99.99,FreeWX-Wi 1.01,2013-04-19 05:30:00,
2013-04-18 22:40:00,53.2,43.3,30.12,North,-999,0.0,4.0,69,0.00,,,-99.99,FreeWX-Wi 1.01,2013-04-19 05:40:00,
2013-04-18 22:50:00,53.2,43.3,30.09,North,-999,0.0,3.6,69,0.00,,,-99.99,FreeWX-Wi 1.01,2013-04-19 05:50:00,
2013-04-18 23:00:00,53.2,43.3,30.09,North,-999,0.0,0.0,69,0.00,,,-99.99,FreeWX-Wi 1.01,2013-04-19 06:00:00,
2013-04-18 23:10:00,53.4,43.2,30.09,North,-999,0.0,2.7,68,0.00,,,-99.99,FreeWX-Wi 1.01,2013-04-19 06:10:00,
2013-04-18 23:20:00,53.4,43.2,30.09,North,-999,0.0,0.0,68,0.00,,,-99.99,FreeWX-Wi 1.01,2013-04-19 06:20:00,
2013-04-18 23:30:00,53.2,43.0,30.09,North,-999,0.0,0.0,68,0.00,,,-99.99,FreeWX-Wi 1.01,2013-04-19 06:30:00,
2013-04-18 23:40:00,53.2,43.0,30.09,North,-999,0.0,0.0,68,0.00,,,-99.99,FreeWX-Wi 1.01,2013-04-19 06:40:00,
2013-04-18 23:50:00,53.1,43.2,30.09,North,-999,0.0,4.0,69,0.00,,,-99.99,FreeWX-Wi 1.01,2013-04-19 06:50:00,